sensor_id;sensor_type;location;lat;lon;timestamp;P1;durP1;ratioP1;P2;durP2;ratioP2
8927;SDS011;4499;48.304;11.902;2023-07-31T00:00:14;4.37;;;2.13;;
8927;SDS011;4499;48.304;11.902;2023-07-31T00:02:42;3.90;;;1.90;;
8927;SDS011;4499;48.304;11.902;2023-07-31T00:05:10;5.07;;;2.37;;
8927;SDS011;4499;48.304;11.902;2023-07-31T00:07:40;4.70;;;2.10;;
8927;SDS011;4499;48.304;11.902;2023-07-31T00:10:08;6.27;;;2.13;;
8927;SDS011;4499;48.304;11.902;2023-07-31T00:12:37;3.87;;;2.03;;
8927;SDS011;4499;48.304;11.902;2023-07-31T00:15:06;5.03;;;2.13;;
8927;SDS011;4499;48.304;11.902;2023-07-31T00:17:34;4.90;;;2.17;;
8927;SDS011;4499;48.304;11.902;2023-07-31T00:20:03;5.23;;;2.13;;
8927;SDS011;4499;48.304;11.902;2023-07-31T00:22:32;4.03;;;2.03;;
8927;SDS011;4499;48.304;11.902;2023-07-31T00:25:01;3.33;;;1.80;;
8927;SDS011;4499;48.304;11.902;2023-07-31T00:27:30;5.13;;;2.23;;
8927;SDS011;4499;48.304;11.902;2023-07-31T00:29:58;6.00;;;2.30;;
8927;SDS011;4499;48.304;11.902;2023-07-31T00:32:26;6.40;;;2.20;;
8927;SDS011;4499;48.304;11.902;2023-07-31T00:34:55;2.23;;;1.90;;
8927;SDS011;4499;48.304;11.902;2023-07-31T00:37:23;4.70;;;2.10;;
8927;SDS011;4499;48.304;11.902;2023-07-31T00:39:51;4.93;;;2.27;;
8927;SDS011;4499;48.304;11.902;2023-07-31T00:42:20;3.57;;;2.00;;
8927;SDS011;4499;48.304;11.902;2023-07-31T00:44:48;3.63;;;2.00;;
8927;SDS011;4499;48.304;11.902;2023-07-31T00:47:16;5.70;;;2.20;;
8927;SDS011;4499;48.304;11.902;2023-07-31T00:49:44;3.93;;;2.10;;
8927;SDS011;4499;48.304;11.902;2023-07-31T00:52:13;6.10;;;2.00;;
8927;SDS011;4499;48.304;11.902;2023-07-31T00:54:41;5.83;;;2.00;;
8927;SDS011;4499;48.304;11.902;2023-07-31T00:57:09;5.53;;;2.10;;
8927;SDS011;4499;48.304;11.902;2023-07-31T00:59:39;4.47;;;2.20;;
8927;SDS011;4499;48.304;11.902;2023-07-31T01:02:07;3.73;;;2.10;;
8927;SDS011;4499;48.304;11.902;2023-07-31T01:04:35;4.67;;;2.10;;
8927;SDS011;4499;48.304;11.902;2023-07-31T01:07:05;4.60;;;2.00;;
8927;SDS011;4499;48.304;11.902;2023-07-31T01:09:40;6.03;;;2.03;;
8927;SDS011;4499;48.304;11.902;2023-07-31T01:12:13;5.13;;;2.03;;
8927;SDS011;4499;48.304;11.902;2023-07-31T01:14:51;3.07;;;2.00;;
8927;SDS011;4499;48.304;11.902;2023-07-31T01:17:29;6.83;;;2.30;;
8927;SDS011;4499;48.304;11.902;2023-07-31T01:19:58;3.10;;;1.77;;
8927;SDS011;4499;48.304;11.902;2023-07-31T01:25:26;3.90;;;2.00;;
8927;SDS011;4499;48.304;11.902;2023-07-31T01:28:07;7.37;;;2.20;;
8927;SDS011;4499;48.304;11.902;2023-07-31T01:30:41;5.23;;;2.17;;
8927;SDS011;4499;48.304;11.902;2023-07-31T01:33:12;4.77;;;1.83;;
8927;SDS011;4499;48.304;11.902;2023-07-31T01:35:43;4.67;;;2.07;;
8927;SDS011;4499;48.304;11.902;2023-07-31T01:38:13;3.93;;;2.00;;
8927;SDS011;4499;48.304;11.902;2023-07-31T01:40:41;4.87;;;2.20;;
8927;SDS011;4499;48.304;11.902;2023-07-31T01:43:11;7.10;;;2.20;;
8927;SDS011;4499;48.304;11.902;2023-07-31T01:45:39;3.77;;;1.90;;
8927;SDS011;4499;48.304;11.902;2023-07-31T01:48:07;4.80;;;2.00;;
8927;SDS011;4499;48.304;11.902;2023-07-31T01:50:35;4.83;;;2.20;;
8927;SDS011;4499;48.304;11.902;2023-07-31T01:53:03;4.53;;;2.30;;
8927;SDS011;4499;48.304;11.902;2023-07-31T01:55:31;4.87;;;2.30;;
8927;SDS011;4499;48.304;11.902;2023-07-31T01:57:59;4.90;;;2.03;;
8927;SDS011;4499;48.304;11.902;2023-07-31T02:00:29;3.83;;;2.00;;
8927;SDS011;4499;48.304;11.902;2023-07-31T02:02:57;2.30;;;1.67;;
8927;SDS011;4499;48.304;11.902;2023-07-31T02:05:27;4.70;;;2.40;;
8927;SDS011;4499;48.304;11.902;2023-07-31T02:07:55;3.57;;;2.30;;
8927;SDS011;4499;48.304;11.902;2023-07-31T02:10:23;4.37;;;2.17;;
8927;SDS011;4499;48.304;11.902;2023-07-31T02:12:51;4.30;;;2.30;;
8927;SDS011;4499;48.304;11.902;2023-07-31T02:15:20;3.50;;;2.00;;
8927;SDS011;4499;48.304;11.902;2023-07-31T02:17:49;4.53;;;2.00;;
8927;SDS011;4499;48.304;11.902;2023-07-31T02:20:17;5.37;;;2.60;;
8927;SDS011;4499;48.304;11.902;2023-07-31T02:22:45;3.40;;;2.20;;
8927;SDS011;4499;48.304;11.902;2023-07-31T02:25:13;7.27;;;2.40;;
8927;SDS011;4499;48.304;11.902;2023-07-31T02:27:42;3.50;;;2.10;;
8927;SDS011;4499;48.304;11.902;2023-07-31T02:30:10;4.47;;;2.13;;
8927;SDS011;4499;48.304;11.902;2023-07-31T02:32:39;5.67;;;2.20;;
8927;SDS011;4499;48.304;11.902;2023-07-31T02:35:08;4.10;;;2.20;;
8927;SDS011;4499;48.304;11.902;2023-07-31T02:37:37;6.43;;;2.30;;
8927;SDS011;4499;48.304;11.902;2023-07-31T02:40:06;4.53;;;2.40;;
8927;SDS011;4499;48.304;11.902;2023-07-31T02:42:34;3.37;;;2.20;;
8927;SDS011;4499;48.304;11.902;2023-07-31T02:45:02;5.30;;;2.50;;
8927;SDS011;4499;48.304;11.902;2023-07-31T02:47:31;4.20;;;2.20;;
8927;SDS011;4499;48.304;11.902;2023-07-31T02:49:59;3.40;;;2.40;;
8927;SDS011;4499;48.304;11.902;2023-07-31T02:52:29;4.87;;;2.60;;
8927;SDS011;4499;48.304;11.902;2023-07-31T02:54:57;6.43;;;2.83;;
8927;SDS011;4499;48.304;11.902;2023-07-31T02:57:25;7.40;;;2.40;;
8927;SDS011;4499;48.304;11.902;2023-07-31T02:59:54;5.77;;;2.53;;
8927;SDS011;4499;48.304;11.902;2023-07-31T03:02:22;5.10;;;2.30;;
8927;SDS011;4499;48.304;11.902;2023-07-31T03:04:50;4.47;;;2.20;;
8927;SDS011;4499;48.304;11.902;2023-07-31T03:07:18;4.60;;;2.70;;
8927;SDS011;4499;48.304;11.902;2023-07-31T03:09:47;4.80;;;2.57;;
8927;SDS011;4499;48.304;11.902;2023-07-31T03:12:15;6.47;;;2.80;;
8927;SDS011;4499;48.304;11.902;2023-07-31T03:14:43;5.80;;;2.63;;
8927;SDS011;4499;48.304;11.902;2023-07-31T03:17:11;4.77;;;2.70;;
8927;SDS011;4499;48.304;11.902;2023-07-31T03:19:39;5.67;;;2.40;;
8927;SDS011;4499;48.304;11.902;2023-07-31T03:22:08;4.97;;;2.70;;
8927;SDS011;4499;48.304;11.902;2023-07-31T03:24:36;6.07;;;2.70;;
8927;SDS011;4499;48.304;11.902;2023-07-31T03:27:05;6.97;;;2.60;;
8927;SDS011;4499;48.304;11.902;2023-07-31T03:29:34;4.80;;;2.63;;
8927;SDS011;4499;48.304;11.902;2023-07-31T03:32:02;4.70;;;2.53;;
8927;SDS011;4499;48.304;11.902;2023-07-31T03:34:30;5.07;;;2.67;;
8927;SDS011;4499;48.304;11.902;2023-07-31T03:36:59;3.60;;;2.50;;
8927;SDS011;4499;48.304;11.902;2023-07-31T03:39:27;6.80;;;3.20;;
8927;SDS011;4499;48.304;11.902;2023-07-31T03:41:55;4.57;;;2.47;;
8927;SDS011;4499;48.304;11.902;2023-07-31T03:44:24;6.53;;;3.00;;
8927;SDS011;4499;48.304;11.902;2023-07-31T03:46:52;7.13;;;3.00;;
8927;SDS011;4499;48.304;11.902;2023-07-31T03:49:21;7.03;;;2.90;;
8927;SDS011;4499;48.304;11.902;2023-07-31T03:51:49;6.60;;;2.80;;
8927;SDS011;4499;48.304;11.902;2023-07-31T03:54:17;6.90;;;3.10;;
8927;SDS011;4499;48.304;11.902;2023-07-31T03:56:45;5.07;;;2.97;;
8927;SDS011;4499;48.304;11.902;2023-07-31T03:59:13;5.73;;;2.90;;
8927;SDS011;4499;48.304;11.902;2023-07-31T04:01:42;4.70;;;2.77;;
8927;SDS011;4499;48.304;11.902;2023-07-31T04:04:11;7.10;;;2.97;;
8927;SDS011;4499;48.304;11.902;2023-07-31T04:06:39;4.67;;;2.60;;
8927;SDS011;4499;48.304;11.902;2023-07-31T04:09:07;4.60;;;2.67;;
8927;SDS011;4499;48.304;11.902;2023-07-31T04:11:35;4.43;;;2.60;;
8927;SDS011;4499;48.304;11.902;2023-07-31T04:14:03;3.47;;;2.40;;
8927;SDS011;4499;48.304;11.902;2023-07-31T04:16:31;5.40;;;2.57;;
8927;SDS011;4499;48.304;11.902;2023-07-31T04:19:01;7.33;;;2.73;;
8927;SDS011;4499;48.304;11.902;2023-07-31T04:21:29;4.73;;;2.60;;
8927;SDS011;4499;48.304;11.902;2023-07-31T04:23:57;5.50;;;2.70;;
8927;SDS011;4499;48.304;11.902;2023-07-31T04:26:26;7.10;;;2.50;;
8927;SDS011;4499;48.304;11.902;2023-07-31T04:28:54;6.97;;;2.53;;
8927;SDS011;4499;48.304;11.902;2023-07-31T04:31:22;3.90;;;2.53;;
8927;SDS011;4499;48.304;11.902;2023-07-31T04:33:50;6.53;;;2.37;;
8927;SDS011;4499;48.304;11.902;2023-07-31T04:36:19;5.20;;;2.73;;
8927;SDS011;4499;48.304;11.902;2023-07-31T04:38:47;5.63;;;2.70;;
8927;SDS011;4499;48.304;11.902;2023-07-31T04:41:15;8.93;;;2.70;;
8927;SDS011;4499;48.304;11.902;2023-07-31T04:43:43;3.97;;;2.80;;
8927;SDS011;4499;48.304;11.902;2023-07-31T04:46:11;4.73;;;2.73;;
8927;SDS011;4499;48.304;11.902;2023-07-31T04:48:40;6.27;;;2.50;;
8927;SDS011;4499;48.304;11.902;2023-07-31T04:51:08;5.27;;;2.87;;
8927;SDS011;4499;48.304;11.902;2023-07-31T04:53:37;3.97;;;2.70;;
8927;SDS011;4499;48.304;11.902;2023-07-31T04:56:05;7.20;;;3.00;;
8927;SDS011;4499;48.304;11.902;2023-07-31T04:58:33;5.10;;;2.60;;
8927;SDS011;4499;48.304;11.902;2023-07-31T05:01:01;5.93;;;2.60;;
8927;SDS011;4499;48.304;11.902;2023-07-31T05:03:29;4.23;;;2.70;;
8927;SDS011;4499;48.304;11.902;2023-07-31T05:05:57;4.10;;;2.67;;
8927;SDS011;4499;48.304;11.902;2023-07-31T05:08:26;5.60;;;2.50;;
8927;SDS011;4499;48.304;11.902;2023-07-31T05:10:55;6.97;;;2.80;;
8927;SDS011;4499;48.304;11.902;2023-07-31T05:13:23;9.90;;;2.80;;
8927;SDS011;4499;48.304;11.902;2023-07-31T05:15:51;4.00;;;2.70;;
8927;SDS011;4499;48.304;11.902;2023-07-31T05:18:20;6.27;;;2.67;;
8927;SDS011;4499;48.304;11.902;2023-07-31T05:20:48;4.63;;;2.70;;
8927;SDS011;4499;48.304;11.902;2023-07-31T05:23:16;5.47;;;2.70;;
8927;SDS011;4499;48.304;11.902;2023-07-31T05:25:44;4.70;;;2.83;;
8927;SDS011;4499;48.304;11.902;2023-07-31T05:28:14;6.77;;;2.70;;
8927;SDS011;4499;48.304;11.902;2023-07-31T05:30:42;5.03;;;2.90;;
8927;SDS011;4499;48.304;11.902;2023-07-31T05:33:10;5.37;;;2.93;;
8927;SDS011;4499;48.304;11.902;2023-07-31T05:35:40;5.53;;;2.80;;
8927;SDS011;4499;48.304;11.902;2023-07-31T05:38:08;6.47;;;2.67;;
8927;SDS011;4499;48.304;11.902;2023-07-31T05:40:37;5.57;;;2.70;;
8927;SDS011;4499;48.304;11.902;2023-07-31T05:43:05;4.23;;;2.50;;
8927;SDS011;4499;48.304;11.902;2023-07-31T05:45:35;5.60;;;2.37;;
8927;SDS011;4499;48.304;11.902;2023-07-31T05:48:04;4.87;;;2.50;;
8927;SDS011;4499;48.304;11.902;2023-07-31T05:50:32;7.20;;;2.73;;
8927;SDS011;4499;48.304;11.902;2023-07-31T05:53:00;3.33;;;2.27;;
8927;SDS011;4499;48.304;11.902;2023-07-31T05:55:28;5.20;;;2.47;;
8927;SDS011;4499;48.304;11.902;2023-07-31T05:57:56;4.70;;;2.30;;
8927;SDS011;4499;48.304;11.902;2023-07-31T06:00:26;4.63;;;2.40;;
8927;SDS011;4499;48.304;11.902;2023-07-31T06:02:56;6.57;;;2.23;;
8927;SDS011;4499;48.304;11.902;2023-07-31T06:05:24;6.43;;;2.30;;
8927;SDS011;4499;48.304;11.902;2023-07-31T06:07:54;6.03;;;2.00;;
8927;SDS011;4499;48.304;11.902;2023-07-31T06:10:22;4.03;;;2.10;;
8927;SDS011;4499;48.304;11.902;2023-07-31T06:12:50;5.03;;;2.13;;
8927;SDS011;4499;48.304;11.902;2023-07-31T06:15:19;3.50;;;2.00;;
8927;SDS011;4499;48.304;11.902;2023-07-31T06:17:47;6.07;;;2.40;;
8927;SDS011;4499;48.304;11.902;2023-07-31T06:20:17;3.10;;;2.30;;
8927;SDS011;4499;48.304;11.902;2023-07-31T06:22:45;3.20;;;1.97;;
8927;SDS011;4499;48.304;11.902;2023-07-31T06:25:13;3.80;;;2.07;;
8927;SDS011;4499;48.304;11.902;2023-07-31T06:27:41;5.17;;;2.30;;
8927;SDS011;4499;48.304;11.902;2023-07-31T06:30:10;4.27;;;2.00;;
8927;SDS011;4499;48.304;11.902;2023-07-31T06:32:38;3.67;;;1.93;;
8927;SDS011;4499;48.304;11.902;2023-07-31T06:35:08;4.70;;;1.73;;
8927;SDS011;4499;48.304;11.902;2023-07-31T06:37:37;5.23;;;2.30;;
8927;SDS011;4499;48.304;11.902;2023-07-31T06:40:07;5.17;;;2.30;;
8927;SDS011;4499;48.304;11.902;2023-07-31T06:42:36;4.33;;;2.10;;
8927;SDS011;4499;48.304;11.902;2023-07-31T06:45:04;3.40;;;2.23;;
8927;SDS011;4499;48.304;11.902;2023-07-31T06:47:33;4.30;;;2.20;;
8927;SDS011;4499;48.304;11.902;2023-07-31T06:50:02;6.60;;;2.23;;
8927;SDS011;4499;48.304;11.902;2023-07-31T06:52:30;5.57;;;2.40;;
8927;SDS011;4499;48.304;11.902;2023-07-31T06:55:03;4.50;;;2.27;;
8927;SDS011;4499;48.304;11.902;2023-07-31T06:57:43;6.20;;;2.27;;
8927;SDS011;4499;48.304;11.902;2023-07-31T07:00:12;4.03;;;2.27;;
8927;SDS011;4499;48.304;11.902;2023-07-31T07:02:40;3.77;;;2.00;;
8927;SDS011;4499;48.304;11.902;2023-07-31T07:05:09;4.43;;;2.30;;
8927;SDS011;4499;48.304;11.902;2023-07-31T07:07:38;5.43;;;2.43;;
8927;SDS011;4499;48.304;11.902;2023-07-31T07:10:10;3.87;;;2.20;;
8927;SDS011;4499;48.304;11.902;2023-07-31T07:12:38;4.07;;;2.17;;
8927;SDS011;4499;48.304;11.902;2023-07-31T07:15:07;3.33;;;2.30;;
8927;SDS011;4499;48.304;11.902;2023-07-31T07:17:36;3.70;;;2.30;;
8927;SDS011;4499;48.304;11.902;2023-07-31T07:20:05;5.07;;;2.23;;
8927;SDS011;4499;48.304;11.902;2023-07-31T07:22:34;3.70;;;2.10;;
8927;SDS011;4499;48.304;11.902;2023-07-31T07:25:03;3.53;;;2.07;;
8927;SDS011;4499;48.304;11.902;2023-07-31T07:27:35;3.20;;;1.90;;
8927;SDS011;4499;48.304;11.902;2023-07-31T07:30:03;3.90;;;1.90;;
8927;SDS011;4499;48.304;11.902;2023-07-31T07:32:32;5.50;;;1.90;;
8927;SDS011;4499;48.304;11.902;2023-07-31T07:35:00;4.40;;;1.80;;
8927;SDS011;4499;48.304;11.902;2023-07-31T07:37:28;3.97;;;2.10;;
8927;SDS011;4499;48.304;11.902;2023-07-31T07:39:59;6.83;;;2.10;;
8927;SDS011;4499;48.304;11.902;2023-07-31T07:42:27;7.93;;;2.30;;
8927;SDS011;4499;48.304;11.902;2023-07-31T07:44:56;4.73;;;2.10;;
8927;SDS011;4499;48.304;11.902;2023-07-31T07:47:25;5.17;;;1.83;;
8927;SDS011;4499;48.304;11.902;2023-07-31T07:49:54;2.40;;;1.70;;
8927;SDS011;4499;48.304;11.902;2023-07-31T07:52:23;4.77;;;2.00;;
8927;SDS011;4499;48.304;11.902;2023-07-31T07:54:51;3.50;;;1.80;;
8927;SDS011;4499;48.304;11.902;2023-07-31T07:57:19;4.37;;;1.70;;
8927;SDS011;4499;48.304;11.902;2023-07-31T07:59:48;3.93;;;2.00;;
8927;SDS011;4499;48.304;11.902;2023-07-31T08:02:18;2.47;;;1.60;;
8927;SDS011;4499;48.304;11.902;2023-07-31T08:04:46;4.10;;;1.80;;
8927;SDS011;4499;48.304;11.902;2023-07-31T08:07:15;3.38;;;1.60;;
8927;SDS011;4499;48.304;11.902;2023-07-31T08:09:43;2.80;;;1.65;;
8927;SDS011;4499;48.304;11.902;2023-07-31T08:12:12;4.85;;;1.75;;
8927;SDS011;4499;48.304;11.902;2023-07-31T08:14:40;1.70;;;1.40;;
8927;SDS011;4499;48.304;11.902;2023-07-31T08:17:08;3.08;;;1.60;;
8927;SDS011;4499;48.304;11.902;2023-07-31T08:19:38;2.88;;;1.75;;
8927;SDS011;4499;48.304;11.902;2023-07-31T08:22:06;5.00;;;1.80;;
8927;SDS011;4499;48.304;11.902;2023-07-31T08:24:34;4.00;;;1.90;;
8927;SDS011;4499;48.304;11.902;2023-07-31T08:27:02;3.13;;;1.60;;
8927;SDS011;4499;48.304;11.902;2023-07-31T08:29:31;4.38;;;1.85;;
8927;SDS011;4499;48.304;11.902;2023-07-31T08:31:59;5.18;;;1.70;;
8927;SDS011;4499;48.304;11.902;2023-07-31T08:34:27;4.82;;;1.80;;
8927;SDS011;4499;48.304;11.902;2023-07-31T08:36:57;5.70;;;2.03;;
8927;SDS011;4499;48.304;11.902;2023-07-31T08:39:25;2.72;;;1.77;;
8927;SDS011;4499;48.304;11.902;2023-07-31T08:41:57;2.15;;;1.50;;
8927;SDS011;4499;48.304;11.902;2023-07-31T08:44:26;2.85;;;1.60;;
8927;SDS011;4499;48.304;11.902;2023-07-31T08:46:54;6.53;;;1.83;;
8927;SDS011;4499;48.304;11.902;2023-07-31T08:49:22;3.17;;;1.88;;
8927;SDS011;4499;48.304;11.902;2023-07-31T08:51:52;4.65;;;2.00;;
8927;SDS011;4499;48.304;11.902;2023-07-31T08:54:22;3.30;;;1.73;;
8927;SDS011;4499;48.304;11.902;2023-07-31T08:56:50;3.95;;;1.70;;
8927;SDS011;4499;48.304;11.902;2023-07-31T08:59:21;2.75;;;1.73;;
8927;SDS011;4499;48.304;11.902;2023-07-31T09:01:50;2.97;;;1.60;;
8927;SDS011;4499;48.304;11.902;2023-07-31T09:04:23;7.43;;;2.00;;
8927;SDS011;4499;48.304;11.902;2023-07-31T09:06:53;4.60;;;1.93;;
8927;SDS011;4499;48.304;11.902;2023-07-31T09:09:27;3.93;;;1.97;;
8927;SDS011;4499;48.304;11.902;2023-07-31T09:11:56;3.90;;;1.90;;
8927;SDS011;4499;48.304;11.902;2023-07-31T09:14:25;5.77;;;1.80;;
8927;SDS011;4499;48.304;11.902;2023-07-31T09:16:54;3.30;;;1.90;;
8927;SDS011;4499;48.304;11.902;2023-07-31T09:19:25;3.83;;;1.93;;
8927;SDS011;4499;48.304;11.902;2023-07-31T09:21:54;5.57;;;2.00;;
8927;SDS011;4499;48.304;11.902;2023-07-31T09:24:26;4.33;;;1.93;;
8927;SDS011;4499;48.304;11.902;2023-07-31T09:26:57;3.17;;;1.90;;
8927;SDS011;4499;48.304;11.902;2023-07-31T09:29:27;5.20;;;1.80;;
8927;SDS011;4499;48.304;11.902;2023-07-31T09:31:56;2.80;;;1.60;;
8927;SDS011;4499;48.304;11.902;2023-07-31T09:34:28;8.93;;;2.00;;
8927;SDS011;4499;48.304;11.902;2023-07-31T09:36:59;5.17;;;1.80;;
8927;SDS011;4499;48.304;11.902;2023-07-31T09:39:30;3.03;;;1.80;;
8927;SDS011;4499;48.304;11.902;2023-07-31T09:41:58;3.10;;;1.80;;
8927;SDS011;4499;48.304;11.902;2023-07-31T09:44:38;7.13;;;1.83;;
8927;SDS011;4499;48.304;11.902;2023-07-31T09:47:18;3.43;;;1.77;;
8927;SDS011;4499;48.304;11.902;2023-07-31T09:49:50;3.83;;;1.83;;
8927;SDS011;4499;48.304;11.902;2023-07-31T09:52:19;5.43;;;2.00;;
8927;SDS011;4499;48.304;11.902;2023-07-31T09:54:48;7.37;;;2.07;;
8927;SDS011;4499;48.304;11.902;2023-07-31T09:57:16;4.77;;;1.87;;
8927;SDS011;4499;48.304;11.902;2023-07-31T09:59:45;6.00;;;1.90;;
8927;SDS011;4499;48.304;11.902;2023-07-31T10:02:15;5.03;;;2.10;;
8927;SDS011;4499;48.304;11.902;2023-07-31T10:04:49;5.23;;;2.20;;
8927;SDS011;4499;48.304;11.902;2023-07-31T10:07:18;4.20;;;1.80;;
8927;SDS011;4499;48.304;11.902;2023-07-31T10:09:51;5.23;;;2.03;;
8927;SDS011;4499;48.304;11.902;2023-07-31T10:12:21;3.30;;;1.90;;
8927;SDS011;4499;48.304;11.902;2023-07-31T10:14:52;4.40;;;1.60;;
8927;SDS011;4499;48.304;11.902;2023-07-31T10:17:22;4.80;;;1.90;;
8927;SDS011;4499;48.304;11.902;2023-07-31T10:19:51;3.35;;;1.80;;
8927;SDS011;4499;48.304;11.902;2023-07-31T10:22:20;4.30;;;1.80;;
8927;SDS011;4499;48.304;11.902;2023-07-31T10:24:50;5.13;;;1.92;;
8927;SDS011;4499;48.304;11.902;2023-07-31T10:27:21;4.03;;;1.77;;
8927;SDS011;4499;48.304;11.902;2023-07-31T10:29:50;3.95;;;1.95;;
8927;SDS011;4499;48.304;11.902;2023-07-31T10:32:19;4.53;;;1.80;;
8927;SDS011;4499;48.304;11.902;2023-07-31T10:34:49;4.28;;;1.92;;
8927;SDS011;4499;48.304;11.902;2023-07-31T10:37:22;6.60;;;1.90;;
8927;SDS011;4499;48.304;11.902;2023-07-31T10:39:56;5.18;;;1.80;;
8927;SDS011;4499;48.304;11.902;2023-07-31T10:42:27;6.47;;;1.90;;
8927;SDS011;4499;48.304;11.902;2023-07-31T10:44:57;3.42;;;1.70;;
8927;SDS011;4499;48.304;11.902;2023-07-31T10:47:26;5.03;;;1.80;;
8927;SDS011;4499;48.304;11.902;2023-07-31T10:52:47;3.22;;;1.95;;
8927;SDS011;4499;48.304;11.902;2023-07-31T10:55:24;6.07;;;2.00;;
8927;SDS011;4499;48.304;11.902;2023-07-31T10:57:56;3.60;;;1.90;;
8927;SDS011;4499;48.304;11.902;2023-07-31T11:00:32;7.45;;;2.10;;
8927;SDS011;4499;48.304;11.902;2023-07-31T11:03:01;4.32;;;1.90;;
8927;SDS011;4499;48.304;11.902;2023-07-31T11:05:47;3.88;;;1.85;;
8927;SDS011;4499;48.304;11.902;2023-07-31T11:08:20;4.55;;;1.73;;
8927;SDS011;4499;48.304;11.902;2023-07-31T11:10:51;6.03;;;1.70;;
8927;SDS011;4499;48.304;11.902;2023-07-31T11:13:39;4.60;;;2.15;;
8927;SDS011;4499;48.304;11.902;2023-07-31T11:16:09;3.42;;;1.83;;
8927;SDS011;4499;48.304;11.902;2023-07-31T11:18:38;3.90;;;1.88;;
8927;SDS011;4499;48.304;11.902;2023-07-31T11:21:08;3.92;;;2.05;;
8927;SDS011;4499;48.304;11.902;2023-07-31T11:23:36;3.75;;;1.83;;
8927;SDS011;4499;48.304;11.902;2023-07-31T11:26:07;4.30;;;1.95;;
8927;SDS011;4499;48.304;11.902;2023-07-31T11:28:35;5.25;;;1.90;;
8927;SDS011;4499;48.304;11.902;2023-07-31T11:31:04;3.85;;;1.90;;
8927;SDS011;4499;48.304;11.902;2023-07-31T11:33:36;3.58;;;1.90;;
8927;SDS011;4499;48.304;11.902;2023-07-31T11:36:04;4.03;;;1.90;;
8927;SDS011;4499;48.304;11.902;2023-07-31T11:38:33;3.40;;;1.90;;
8927;SDS011;4499;48.304;11.902;2023-07-31T11:41:02;4.37;;;2.07;;
8927;SDS011;4499;48.304;11.902;2023-07-31T11:43:32;5.63;;;1.93;;
8927;SDS011;4499;48.304;11.902;2023-07-31T11:46:02;5.50;;;2.00;;
8927;SDS011;4499;48.304;11.902;2023-07-31T11:48:33;5.43;;;2.50;;
8927;SDS011;4499;48.304;11.902;2023-07-31T11:51:03;3.43;;;1.80;;
8927;SDS011;4499;48.304;11.902;2023-07-31T11:53:33;4.53;;;2.00;;
8927;SDS011;4499;48.304;11.902;2023-07-31T11:56:04;5.77;;;2.10;;
8927;SDS011;4499;48.304;11.902;2023-07-31T11:58:36;2.77;;;1.90;;
8927;SDS011;4499;48.304;11.902;2023-07-31T12:01:06;3.43;;;1.83;;
8927;SDS011;4499;48.304;11.902;2023-07-31T12:03:35;4.30;;;1.97;;
8927;SDS011;4499;48.304;11.902;2023-07-31T12:06:04;3.30;;;1.93;;
8927;SDS011;4499;48.304;11.902;2023-07-31T12:08:32;3.63;;;2.10;;
8927;SDS011;4499;48.304;11.902;2023-07-31T12:11:02;3.63;;;1.73;;
8927;SDS011;4499;48.304;11.902;2023-07-31T12:13:31;3.80;;;2.00;;
8927;SDS011;4499;48.304;11.902;2023-07-31T12:16:03;4.73;;;1.93;;
8927;SDS011;4499;48.304;11.902;2023-07-31T12:18:33;3.33;;;1.83;;
8927;SDS011;4499;48.304;11.902;2023-07-31T12:21:04;4.07;;;1.80;;
8927;SDS011;4499;48.304;11.902;2023-07-31T12:23:35;4.47;;;2.13;;
8927;SDS011;4499;48.304;11.902;2023-07-31T12:26:04;2.47;;;1.73;;
8927;SDS011;4499;48.304;11.902;2023-07-31T12:28:37;4.97;;;2.10;;
8927;SDS011;4499;48.304;11.902;2023-07-31T12:31:09;4.87;;;1.97;;
8927;SDS011;4499;48.304;11.902;2023-07-31T12:33:39;3.40;;;2.20;;
8927;SDS011;4499;48.304;11.902;2023-07-31T12:36:08;3.80;;;1.93;;
8927;SDS011;4499;48.304;11.902;2023-07-31T12:38:37;3.70;;;2.07;;
8927;SDS011;4499;48.304;11.902;2023-07-31T12:41:05;4.30;;;2.07;;
8927;SDS011;4499;48.304;11.902;2023-07-31T12:43:34;5.33;;;2.17;;
8927;SDS011;4499;48.304;11.902;2023-07-31T12:46:03;4.83;;;2.00;;
8927;SDS011;4499;48.304;11.902;2023-07-31T12:48:33;5.53;;;2.10;;
8927;SDS011;4499;48.304;11.902;2023-07-31T12:51:01;4.40;;;1.80;;
8927;SDS011;4499;48.304;11.902;2023-07-31T12:53:30;3.87;;;2.07;;
8927;SDS011;4499;48.304;11.902;2023-07-31T12:55:58;4.77;;;1.70;;
8927;SDS011;4499;48.304;11.902;2023-07-31T12:58:26;5.40;;;2.20;;
8927;SDS011;4499;48.304;11.902;2023-07-31T13:00:54;3.43;;;1.90;;
8927;SDS011;4499;48.304;11.902;2023-07-31T13:03:22;4.57;;;2.17;;
8927;SDS011;4499;48.304;11.902;2023-07-31T13:05:52;3.83;;;1.87;;
8927;SDS011;4499;48.304;11.902;2023-07-31T13:08:21;4.23;;;1.90;;
8927;SDS011;4499;48.304;11.902;2023-07-31T13:10:49;4.77;;;2.00;;
8927;SDS011;4499;48.304;11.902;2023-07-31T13:13:17;4.70;;;1.90;;
8927;SDS011;4499;48.304;11.902;2023-07-31T13:15:45;6.57;;;2.20;;
8927;SDS011;4499;48.304;11.902;2023-07-31T13:18:13;3.37;;;1.67;;
8927;SDS011;4499;48.304;11.902;2023-07-31T13:20:41;4.53;;;2.20;;
8927;SDS011;4499;48.304;11.902;2023-07-31T13:23:11;6.03;;;2.50;;
8927;SDS011;4499;48.304;11.902;2023-07-31T13:25:39;4.40;;;2.20;;
8927;SDS011;4499;48.304;11.902;2023-07-31T13:28:07;7.20;;;2.40;;
8927;SDS011;4499;48.304;11.902;2023-07-31T13:30:35;4.57;;;1.87;;
8927;SDS011;4499;48.304;11.902;2023-07-31T13:33:03;4.87;;;2.00;;
8927;SDS011;4499;48.304;11.902;2023-07-31T13:35:40;2.93;;;1.70;;
8927;SDS011;4499;48.304;11.902;2023-07-31T13:38:08;6.97;;;2.00;;
8927;SDS011;4499;48.304;11.902;2023-07-31T13:40:37;4.60;;;2.07;;
8927;SDS011;4499;48.304;11.902;2023-07-31T13:43:05;4.47;;;1.90;;
8927;SDS011;4499;48.304;11.902;2023-07-31T13:45:33;4.30;;;1.90;;
8927;SDS011;4499;48.304;11.902;2023-07-31T13:48:02;4.60;;;1.97;;
8927;SDS011;4499;48.304;11.902;2023-07-31T13:50:30;4.50;;;1.80;;
8927;SDS011;4499;48.304;11.902;2023-07-31T13:52:58;4.07;;;1.93;;
8927;SDS011;4499;48.304;11.902;2023-07-31T13:55:27;6.50;;;2.00;;
8927;SDS011;4499;48.304;11.902;2023-07-31T13:57:56;4.37;;;1.80;;
8927;SDS011;4499;48.304;11.902;2023-07-31T14:00:25;9.07;;;2.10;;
8927;SDS011;4499;48.304;11.902;2023-07-31T14:02:55;4.00;;;1.97;;
8927;SDS011;4499;48.304;11.902;2023-07-31T14:05:23;5.00;;;1.60;;
8927;SDS011;4499;48.304;11.902;2023-07-31T14:07:51;4.63;;;1.90;;
8927;SDS011;4499;48.304;11.902;2023-07-31T14:10:19;2.47;;;1.70;;
8927;SDS011;4499;48.304;11.902;2023-07-31T14:12:47;3.80;;;1.80;;
8927;SDS011;4499;48.304;11.902;2023-07-31T14:15:17;2.60;;;1.57;;
8927;SDS011;4499;48.304;11.902;2023-07-31T14:17:45;2.43;;;1.60;;
8927;SDS011;4499;48.304;11.902;2023-07-31T14:20:14;3.53;;;1.80;;
8927;SDS011;4499;48.304;11.902;2023-07-31T14:22:43;2.47;;;1.80;;
8927;SDS011;4499;48.304;11.902;2023-07-31T14:25:11;3.90;;;2.00;;
8927;SDS011;4499;48.304;11.902;2023-07-31T14:27:39;3.47;;;1.80;;
8927;SDS011;4499;48.304;11.902;2023-07-31T14:30:08;4.83;;;1.87;;
8927;SDS011;4499;48.304;11.902;2023-07-31T14:32:38;2.97;;;1.63;;
8927;SDS011;4499;48.304;11.902;2023-07-31T14:35:06;4.20;;;1.90;;
8927;SDS011;4499;48.304;11.902;2023-07-31T14:37:36;5.80;;;1.83;;
8927;SDS011;4499;48.304;11.902;2023-07-31T14:40:05;11.00;;;1.90;;
8927;SDS011;4499;48.304;11.902;2023-07-31T14:42:34;3.13;;;2.10;;
8927;SDS011;4499;48.304;11.902;2023-07-31T14:45:02;2.90;;;1.90;;
8927;SDS011;4499;48.304;11.902;2023-07-31T14:47:31;4.53;;;2.10;;
8927;SDS011;4499;48.304;11.902;2023-07-31T14:50:01;4.97;;;2.30;;
8927;SDS011;4499;48.304;11.902;2023-07-31T14:52:29;5.53;;;2.47;;
8927;SDS011;4499;48.304;11.902;2023-07-31T14:54:57;6.93;;;2.30;;
8927;SDS011;4499;48.304;11.902;2023-07-31T14:57:25;2.90;;;2.10;;
8927;SDS011;4499;48.304;11.902;2023-07-31T14:59:53;2.10;;;1.90;;
8927;SDS011;4499;48.304;11.902;2023-07-31T15:02:21;2.30;;;2.10;;
8927;SDS011;4499;48.304;11.902;2023-07-31T15:04:50;4.00;;;2.10;;
8927;SDS011;4499;48.304;11.902;2023-07-31T15:07:19;5.80;;;2.30;;
8927;SDS011;4499;48.304;11.902;2023-07-31T15:09:47;4.00;;;2.17;;
8927;SDS011;4499;48.304;11.902;2023-07-31T15:12:15;3.90;;;2.30;;
8927;SDS011;4499;48.304;11.902;2023-07-31T15:14:44;5.57;;;2.27;;
8927;SDS011;4499;48.304;11.902;2023-07-31T15:17:12;3.63;;;2.20;;